KLN weather

Larsen Bay Airport
Larsen Bay, Alaska, United States

Public forecast

Using degrees Fahrenheit for public forecast. Weather courtesy of forecast.io.

METAR (pilot weather report)

Closest report is Akhiok Airport, 36.4 nm (67.5 km) S. Retrieved 2019/09/22 09:56 UTC (57 minutes ago):

PAKH 220956Z AUTO 26005KT FEW023 BKN031 09/07 A2973 RMK AO2 SLP070 T00890067 PWINO $

TAF (pilot weather forecast)

Closest forecast is Kodiak Airport, 49.4 nm (91.5 km) ENE. Retrieved 2019/09/22 06:24 UTC (4 hours ago):

TAF PADQ 220521Z 2206/2306 26007KT P6SM SKC TEMPO 2206/2208 26010G16KT FM222100 10012KT P6SM VCSH BKN045 FM230300 06024G34KT 4SM -RA BR OVC020